Time;durP1;ratioP1;P1;durP2;ratioP2;P2;SDS_P1;SDS_P2;PMS_P1;PMS_P2;Temp;Humidity;BMP_temperature;BMP_pressure;BME280_temperature;BME280_humidity;BME280_pressure;Samples;Min_cycle;Max_cycle;Signal;HPM_P1;HPM_P2
2021/05/26 00:02:01;;;;;;;17.30;3.77;;;9.70;99.90;;;;;;5073014;28;20238;-76
2021/05/26 00:04:27;;;;;;;12.97;3.37;;;9.70;99.90;;;;;;5074143;28;20317;-79
2021/05/26 00:06:54;;;;;;;17.23;3.00;;;9.60;99.90;;;;;;5074085;28;20630;-79
2021/05/26 00:09:20;;;;;;;13.77;3.33;;;9.60;99.90;;;;;;5072928;28;20287;-80
2021/05/26 00:11:47;;;;;;;12.03;2.80;;;9.50;99.90;;;;;;5073312;28;20630;-77
2021/05/26 00:14:14;;;;;;;9.10;2.97;;;9.50;99.90;;;;;;5073710;28;20304;-79
2021/05/26 00:16:41;;;;;;;13.00;3.00;;;9.40;99.90;;;;;;5073947;28;20207;-78
2021/05/26 00:19:08;;;;;;;13.93;2.93;;;9.40;99.90;;;;;;5073271;28;20205;-78
2021/05/26 00:21:34;;;;;;;9.60;2.60;;;9.50;99.90;;;;;;5073762;28;20307;-78
2021/05/26 00:24:01;;;;;;;9.23;2.60;;;9.50;99.90;;;;;;5073608;28;20305;-77
2021/05/26 00:26:27;;;;;;;9.00;2.73;;;9.40;99.90;;;;;;5072813;28;20667;-77
2021/05/26 00:28:55;;;;;;;12.67;3.23;;;9.50;99.90;;;;;;5073490;28;20291;-79
2021/05/26 00:31:23;;;;;;;19.70;3.57;;;9.50;99.90;;;;;;5073216;28;20220;-79
2021/05/26 00:33:50;;;;;;;15.50;4.23;;;9.40;99.90;;;;;;5072106;28;20297;-78
2021/05/26 00:36:16;;;;;;;12.30;3.43;;;9.40;99.90;;;;;;5073130;28;20333;-79
2021/05/26 00:38:43;;;;;;;18.83;4.00;;;9.40;99.90;;;;;;5073264;28;20263;-78
2021/05/26 00:41:09;;;;;;;15.53;3.93;;;9.30;99.90;;;;;;5072604;28;20221;-78
2021/05/26 00:43:36;;;;;;;15.67;4.70;;;9.30;99.90;;;;;;5072766;28;20210;-78
2021/05/26 00:46:04;;;;;;;17.17;3.53;;;9.30;99.90;;;;;;5073196;28;20542;-78
2021/05/26 00:48:30;;;;;;;18.70;4.90;;;9.30;99.90;;;;;;5073225;28;20288;-78
2021/05/26 00:50:57;;;;;;;15.13;3.63;;;9.30;99.90;;;;;;5073378;28;20233;-78
2021/05/26 00:53:24;;;;;;;12.43;2.90;;;9.30;99.90;;;;;;5072934;28;20296;-78
2021/05/26 00:55:51;;;;;;;12.23;2.57;;;9.30;99.90;;;;;;5072455;28;20209;-78
2021/05/26 00:58:17;;;;;;;8.70;2.67;;;9.20;99.90;;;;;;5073080;28;20606;-80
2021/05/26 01:00:43;;;;;;;10.97;2.83;;;9.20;99.90;;;;;;5073193;28;20223;-78
2021/05/26 01:03:11;;;;;;;9.20;3.33;;;9.20;99.90;;;;;;5072840;28;20197;-78
2021/05/26 01:05:39;;;;;;;7.40;2.43;;;9.20;99.90;;;;;;5072881;28;20278;-82
2021/05/26 01:08:06;;;;;;;5.83;1.93;;;9.10;99.90;;;;;;5072850;28;20288;-79
2021/05/26 01:10:35;;;;;;;8.50;2.03;;;9.10;99.90;;;;;;5072932;28;20739;-80
2021/05/26 01:13:01;;;;;;;6.77;1.90;;;9.20;99.90;;;;;;5072806;28;20300;-77
2021/05/26 01:15:28;;;;;;;5.47;1.57;;;9.20;99.90;;;;;;5072754;28;20298;-78
2021/05/26 01:17:54;;;;;;;6.77;1.80;;;9.20;99.90;;;;;;5072590;28;20194;-78
2021/05/26 01:20:24;;;;;;;4.87;1.50;;;9.10;99.90;;;;;;5072816;28;20221;-78
2021/05/26 01:22:52;;;;;;;7.63;2.00;;;9.20;99.90;;;;;;5072532;28;20207;-77
2021/05/26 01:25:19;;;;;;;6.10;1.90;;;9.20;99.90;;;;;;5072228;28;20232;-78
2021/05/26 01:27:46;;;;;;;4.93;1.40;;;9.20;99.90;;;;;;5072577;28;20197;-80
2021/05/26 01:30:14;;;;;;;4.57;1.50;;;9.20;99.90;;;;;;5073197;28;20254;-78
2021/05/26 01:32:43;;;;;;;4.07;1.17;;;9.20;99.90;;;;;;5072576;28;20196;-78
2021/05/26 01:35:11;;;;;;;2.90;1.17;;;9.20;99.90;;;;;;5072636;28;20197;-78
2021/05/26 01:37:39;;;;;;;3.50;1.30;;;9.10;99.90;;;;;;5073158;28;20284;-77
2021/05/26 01:40:09;;;;;;;2.80;1.13;;;9.10;99.90;;;;;;5076259;28;20195;-78
2021/05/26 01:42:36;;;;;;;5.63;1.30;;;9.10;99.90;;;;;;5075887;28;20741;-79
2021/05/26 01:45:06;;;;;;;6.13;1.73;;;9.00;99.90;;;;;;5075843;28;20229;-78
2021/05/26 01:47:33;;;;;;;3.80;1.27;;;9.00;99.90;;;;;;5076395;28;20673;-82
2021/05/26 01:50:00;;;;;;;3.10;1.23;;;9.10;99.90;;;;;;5076170;28;20668;-79
2021/05/26 01:52:26;;;;;;;5.30;1.27;;;9.10;99.90;;;;;;5076070;28;20201;-80
2021/05/26 01:54:52;;;;;;;3.53;1.43;;;9.20;99.90;;;;;;5076349;28;20679;-79
2021/05/26 01:57:20;;;;;;;5.47;1.87;;;9.30;99.90;;;;;;5076188;28;20205;-82
2021/05/26 01:59:46;;;;;;;4.63;1.67;;;9.30;99.90;;;;;;5075752;28;20211;-77
2021/05/26 02:02:13;;;;;;;6.97;2.00;;;9.40;99.90;;;;;;5075431;28;20649;-78
2021/05/26 02:04:39;;;;;;;4.17;1.60;;;9.40;99.90;;;;;;5076111;28;20293;-78
2021/05/26 02:07:07;;;;;;;4.40;1.53;;;9.50;99.90;;;;;;5075642;28;20645;-79
2021/05/26 02:09:34;;;;;;;7.70;1.83;;;9.50;99.90;;;;;;5075650;28;20199;-81
2021/05/26 02:14:45;;;;;;;5.40;1.60;;;9.50;99.90;;;;;;5075668;28;20702;-78
2021/05/26 02:17:12;;;;;;;9.07;1.83;;;9.50;99.90;;;;;;5075776;28;20304;-78
2021/05/26 02:19:38;;;;;;;6.60;2.10;;;9.60;99.90;;;;;;5075770;28;20609;-78
2021/05/26 02:22:05;;;;;;;4.23;2.00;;;9.60;99.90;;;;;;5075674;28;20234;-78
2021/05/26 02:24:31;;;;;;;4.83;2.13;;;9.60;99.90;;;;;;5075620;28;20208;-82
2021/05/26 02:26:57;;;;;;;8.77;2.57;;;9.50;99.90;;;;;;5075216;28;20290;-78
2021/05/26 02:29:24;;;;;;;4.97;2.20;;;9.60;99.90;;;;;;5075503;28;20657;-80
2021/05/26 02:31:51;;;;;;;6.43;2.07;;;9.50;99.90;;;;;;5075650;28;20753;-79
2021/05/26 02:34:18;;;;;;;4.33;1.90;;;9.50;99.90;;;;;;5075134;28;20320;-81
2021/05/26 02:36:44;;;;;;;8.00;2.10;;;9.50;99.90;;;;;;5075282;28;20303;-78
2021/05/26 02:39:11;;;;;;;7.57;1.90;;;9.60;99.90;;;;;;5075388;28;20241;-78
2021/05/26 02:41:38;;;;;;;6.13;1.90;;;9.60;99.90;;;;;;5074868;28;20783;-79
2021/05/26 02:44:05;;;;;;;7.07;1.53;;;9.50;99.90;;;;;;5075277;28;20183;-78
2021/05/26 02:46:31;;;;;;;3.50;1.30;;;9.50;99.90;;;;;;5075173;28;20210;-79
2021/05/26 02:48:59;;;;;;;5.47;1.80;;;9.50;99.90;;;;;;5074812;28;20287;-78
2021/05/26 02:51:25;;;;;;;6.80;1.93;;;9.40;99.90;;;;;;5075316;28;20208;-79
2021/05/26 02:53:52;;;;;;;4.73;1.60;;;9.30;99.90;;;;;;5074423;28;20281;-77
2021/05/26 02:56:18;;;;;;;5.67;2.30;;;9.30;99.90;;;;;;5074927;28;20238;-78
2021/05/26 02:58:45;;;;;;;7.20;1.80;;;9.40;99.90;;;;;;5074963;28;20198;-79
2021/05/26 03:01:11;;;;;;;4.20;1.50;;;9.40;99.90;;;;;;5074842;28;20252;-78
2021/05/26 03:03:37;;;;;;;7.60;1.83;;;9.40;99.90;;;;;;5075080;28;20255;-79
2021/05/26 03:06:05;;;;;;;7.93;2.00;;;9.30;99.90;;;;;;5075011;28;20192;-79
2021/05/26 03:08:32;;;;;;;5.27;1.97;;;9.30;99.90;;;;;;5074811;28;20208;-78
2021/05/26 03:10:59;;;;;;;3.50;2.10;;;9.30;99.90;;;;;;5074675;28;20673;-80
2021/05/26 03:13:26;;;;;;;9.27;2.40;;;9.30;99.90;;;;;;5074279;28;20275;-78
2021/05/26 03:15:53;;;;;;;5.30;2.50;;;9.40;99.90;;;;;;5074917;28;20550;-79
2021/05/26 03:18:21;;;;;;;9.63;2.87;;;9.40;99.90;;;;;;5075040;28;20218;-78
2021/05/26 03:20:48;;;;;;;6.27;2.47;;;9.40;99.90;;;;;;5074600;28;20230;-78
2021/05/26 03:23:16;;;;;;;10.90;2.50;;;9.30;99.90;;;;;;5074452;28;20212;-81
2021/05/26 03:25:46;;;;;;;4.77;2.93;;;9.30;99.90;;;;;;5074378;28;20298;-79
2021/05/26 03:28:12;;;;;;;10.30;2.97;;;9.30;99.90;;;;;;5074190;28;20210;-77
2021/05/26 03:30:39;;;;;;;10.20;3.30;;;9.20;99.90;;;;;;5074486;28;20320;-78
2021/05/26 03:33:06;;;;;;;9.13;3.47;;;9.20;99.90;;;;;;5073606;28;20205;-79
2021/05/26 03:35:33;;;;;;;8.03;3.70;;;9.20;99.90;;;;;;5074293;28;20281;-81
2021/05/26 03:38:00;;;;;;;9.80;3.77;;;9.10;99.90;;;;;;5074168;28;20229;-80
2021/05/26 03:40:27;;;;;;;10.90;4.40;;;9.00;99.90;;;;;;5074096;28;20260;-78
2021/05/26 03:42:54;;;;;;;9.17;4.63;;;9.00;99.90;;;;;;5074400;28;20208;-79
2021/05/26 03:45:20;;;;;;;13.30;5.07;;;9.00;99.90;;;;;;5074094;28;20199;-81
2021/05/26 03:47:47;;;;;;;9.17;4.67;;;8.90;99.90;;;;;;5073928;28;20203;-78
2021/05/26 03:50:14;;;;;;;10.47;5.00;;;8.90;99.90;;;;;;5073701;28;20306;-81
2021/05/26 03:52:41;;;;;;;10.83;4.33;;;8.90;99.90;;;;;;5073884;28;20688;-77
2021/05/26 03:55:10;;;;;;;11.87;4.93;;;8.90;99.90;;;;;;5073741;28;20292;-78
2021/05/26 03:57:38;;;;;;;15.23;5.03;;;9.00;99.90;;;;;;5053988;28;20342;-77
2021/05/26 04:00:07;;;;;;;10.20;5.10;;;9.00;99.90;;;;;;5052886;28;20200;-78
2021/05/26 04:02:34;;;;;;;13.90;5.60;;;9.10;99.90;;;;;;5072896;28;20618;-77
2021/05/26 04:05:00;;;;;;;13.20;5.77;;;9.10;99.90;;;;;;5073485;28;20203;-80
2021/05/26 04:07:27;;;;;;;13.17;5.30;;;9.20;99.90;;;;;;5073822;28;20285;-79
2021/05/26 04:09:53;;;;;;;17.20;5.77;;;9.40;99.90;;;;;;5073445;28;20209;-81
2021/05/26 04:12:20;;;;;;;15.00;5.70;;;9.50;99.90;;;;;;5073390;28;20234;-79
2021/05/26 04:14:47;;;;;;;12.37;5.00;;;9.60;99.90;;;;;;5072842;28;20552;-77
2021/05/26 04:17:13;;;;;;;13.70;4.90;;;9.80;99.90;;;;;;5072721;28;20219;-77
2021/05/26 04:19:40;;;;;;;13.23;4.87;;;9.80;99.90;;;;;;5069549;28;20295;-77
2021/05/26 04:22:06;;;;;;;11.70;5.40;;;10.00;99.90;;;;;;5072715;28;20355;-80
2021/05/26 04:24:33;;;;;;;14.23;5.87;;;10.40;99.90;;;;;;5072884;28;20233;-79
2021/05/26 04:26:59;;;;;;;13.73;5.07;;;10.80;99.90;;;;;;5072715;28;20571;-82
2021/05/26 04:29:26;;;;;;;14.87;5.53;;;11.00;99.90;;;;;;5072808;28;20227;-79
2021/05/26 04:31:55;;;;;;;12.23;4.90;;;11.10;99.90;;;;;;5073054;28;20206;-77
2021/05/26 04:34:22;;;;;;;12.53;5.13;;;11.10;99.90;;;;;;5070124;28;20292;-79
2021/05/26 04:36:48;;;;;;;15.23;5.13;;;11.20;99.90;;;;;;5072502;28;20661;-79
2021/05/26 04:39:15;;;;;;;7.87;4.10;;;11.40;99.90;;;;;;5072905;28;20229;-77
2021/05/26 04:41:41;;;;;;;9.87;4.53;;;12.20;99.90;;;;;;5072728;28;20313;-79
2021/05/26 04:44:08;;;;;;;10.33;3.83;;;13.20;99.90;;;;;;5072819;28;20666;-78
2021/05/26 04:46:35;;;;;;;12.07;4.20;;;13.70;99.90;;;;;;5072581;28;20226;-78
2021/05/26 04:49:03;;;;;;;7.00;3.27;;;14.10;99.90;;;;;;5069401;28;20196;-81
2021/05/26 04:51:29;;;;;;;6.27;3.80;;;14.50;99.90;;;;;;5071974;28;20278;-81
2021/05/26 04:53:55;;;;;;;7.10;3.50;;;14.60;99.90;;;;;;5072130;28;20348;-77
2021/05/26 04:56:22;;;;;;;10.00;3.87;;;14.20;99.90;;;;;;5072093;28;20294;-81
2021/05/26 04:58:48;;;;;;;7.50;3.50;;;13.90;99.90;;;;;;5071663;28;20286;-79
2021/05/26 05:01:16;;;;;;;7.03;3.20;;;13.70;99.90;;;;;;5071479;28;20215;-78
2021/05/26 05:03:43;;;;;;;9.43;3.50;;;13.40;99.90;;;;;;5068018;28;20661;-79
2021/05/26 05:06:10;;;;;;;12.37;3.77;;;13.00;99.90;;;;;;5070000;28;20192;-81
2021/05/26 05:08:38;;;;;;;8.80;3.47;;;12.90;99.90;;;;;;5071252;28;20223;-77
2021/05/26 05:11:04;;;;;;;7.80;3.30;;;12.70;99.90;;;;;;5071067;28;20569;-77
2021/05/26 05:13:30;;;;;;;7.10;3.50;;;12.60;99.90;;;;;;5067821;28;20590;-78
2021/05/26 05:15:57;;;;;;;13.10;4.30;;;12.40;99.90;;;;;;5071340;28;20211;-77
2021/05/26 05:18:23;;;;;;;8.70;4.07;;;12.40;99.90;;;;;;5062986;28;20192;-80
2021/05/26 05:20:50;;;;;;;12.67;4.17;;;12.30;99.90;;;;;;5065446;28;20246;-79
2021/05/26 05:23:17;;;;;;;9.67;4.40;;;12.40;99.90;;;;;;5069695;28;20219;-78
2021/05/26 05:25:43;;;;;;;7.53;3.47;;;12.50;99.90;;;;;;5065978;28;20286;-79
2021/05/26 05:28:10;;;;;;;9.63;3.83;;;12.50;99.90;;;;;;5072131;28;20195;-81
2021/05/26 05:30:37;;;;;;;9.07;3.60;;;12.30;99.90;;;;;;5071339;28;20238;-79
2021/05/26 05:33:04;;;;;;;11.90;3.80;;;12.30;99.90;;;;;;5071043;28;20287;-77
2021/05/26 05:35:30;;;;;;;11.37;3.77;;;12.20;99.90;;;;;;5071536;28;20228;-77
2021/05/26 05:37:57;;;;;;;8.67;3.93;;;12.20;99.90;;;;;;5071623;28;20287;-79
2021/05/26 05:40:25;;;;;;;9.13;3.93;;;12.30;99.90;;;;;;5071232;28;20205;-78
2021/05/26 05:42:52;;;;;;;7.83;3.40;;;12.40;99.90;;;;;;5076473;28;20191;-78
2021/05/26 05:45:18;;;;;;;6.17;3.07;;;12.50;99.90;;;;;;5071375;28;20286;-77
2021/05/26 05:47:45;;;;;;;6.37;3.30;;;12.60;99.90;;;;;;5068871;28;20211;-80
2021/05/26 05:50:15;;;;;;;6.17;3.13;;;12.60;99.90;;;;;;5075706;28;20282;-79
2021/05/26 05:52:43;;;;;;;6.77;3.20;;;12.70;99.90;;;;;;5073279;28;20300;-77
2021/05/26 05:55:12;;;;;;;6.27;3.33;;;12.90;99.90;;;;;;5072498;28;20667;-78
2021/05/26 05:57:40;;;;;;;7.97;3.23;;;12.90;99.90;;;;;;5062326;28;20228;-77
2021/05/26 06:00:08;;;;;;;5.70;3.10;;;13.00;99.90;;;;;;5070528;28;20192;-78
2021/05/26 06:02:35;;;;;;;6.63;3.00;;;13.00;99.90;;;;;;5073433;28;20220;-76
2021/05/26 06:05:01;;;;;;;6.20;2.90;;;13.20;99.90;;;;;;5073045;28;20234;-77
2021/05/26 06:07:27;;;;;;;8.07;3.23;;;13.30;99.90;;;;;;5073279;28;20221;-78
2021/05/26 06:09:54;;;;;;;6.07;3.03;;;13.30;99.90;;;;;;5072503;28;20652;-77
2021/05/26 06:12:20;;;;;;;5.67;3.00;;;13.40;99.90;;;;;;5071672;28;20719;-77
2021/05/26 06:14:48;;;;;;;5.07;2.97;;;13.40;99.90;;;;;;5072856;28;20337;-76
2021/05/26 06:17:14;;;;;;;8.93;3.20;;;13.50;99.90;;;;;;5072742;28;20344;-77
2021/05/26 06:19:41;;;;;;;7.23;3.10;;;13.40;99.90;;;;;;5072905;28;20282;-76
2021/05/26 06:22:07;;;;;;;6.70;2.50;;;13.50;99.90;;;;;;5072762;28;20680;-76
2021/05/26 06:24:34;;;;;;;8.23;3.43;;;13.50;99.90;;;;;;5074757;28;20201;-77
2021/05/26 06:27:00;;;;;;;5.83;2.80;;;13.80;99.90;;;;;;5076186;28;20247;-79
2021/05/26 06:29:27;;;;;;;4.43;2.83;;;14.50;99.90;;;;;;5074137;28;20196;-79
2021/05/26 06:31:54;;;;;;;4.73;2.47;;;16.20;99.90;;;;;;5062241;28;20287;-77
2021/05/26 06:34:20;;;;;;;4.07;2.60;;;16.80;99.90;;;;;;5074903;28;20298;-80
2021/05/26 06:36:47;;;;;;;8.33;3.50;;;16.80;99.90;;;;;;5075396;28;20682;-78
2021/05/26 06:39:13;;;;;;;4.43;2.60;;;16.80;99.90;;;;;;5075503;28;20204;-77
2021/05/26 06:41:39;;;;;;;6.10;2.47;;;16.80;99.90;;;;;;5075074;28;20223;-78
2021/05/26 06:44:06;;;;;;;4.90;2.77;;;16.80;99.90;;;;;;5074660;28;20248;-79
2021/05/26 06:46:32;;;;;;;3.77;2.10;;;16.80;99.90;;;;;;5074868;28;20195;-79
2021/05/26 06:49:00;;;;;;;3.30;2.10;;;16.70;99.90;;;;;;5075013;28;20662;-78
2021/05/26 06:51:26;;;;;;;4.97;2.47;;;16.30;99.90;;;;;;5074900;28;20231;-77
2021/05/26 06:53:55;;;;;;;4.27;2.53;;;16.10;99.90;;;;;;5074507;28;20626;-78
2021/05/26 06:56:21;;;;;;;4.80;2.83;;;16.40;99.90;;;;;;5074878;28;20291;-78
2021/05/26 06:58:48;;;;;;;3.53;2.60;;;16.40;99.90;;;;;;5074831;28;20291;-77
2021/05/26 07:01:14;;;;;;;3.70;2.30;;;16.30;99.90;;;;;;5070630;28;20307;-77
2021/05/26 07:03:40;;;;;;;4.87;2.60;;;16.30;99.90;;;;;;5057190;28;20242;-78
2021/05/26 07:06:08;;;;;;;3.73;2.03;;;16.30;99.90;;;;;;5057361;28;20196;-76
2021/05/26 07:08:34;;;;;;;5.13;2.47;;;16.30;99.90;;;;;;5058486;28;20324;-76
2021/05/26 07:11:00;;;;;;;3.87;2.10;;;16.30;99.90;;;;;;5054669;28;20201;-75
2021/05/26 07:13:27;;;;;;;4.33;2.37;;;16.40;99.90;;;;;;5064062;28;20283;-77
2021/05/26 07:15:53;;;;;;;5.30;1.73;;;16.60;99.90;;;;;;5074051;28;20510;-77
2021/05/26 07:18:21;;;;;;;3.83;1.93;;;16.50;99.90;;;;;;5074106;28;20291;-78
2021/05/26 07:20:48;;;;;;;5.37;2.10;;;16.40;99.90;;;;;;5073840;28;20310;-77
2021/05/26 07:23:17;;;;;;;5.77;2.10;;;16.60;99.90;;;;;;5072983;28;20195;-77
2021/05/26 07:25:43;;;;;;;2.87;1.80;;;16.70;99.90;;;;;;5056309;28;20200;-78
2021/05/26 07:28:09;;;;;;;3.73;2.20;;;16.70;99.90;;;;;;5072464;28;20203;-77
2021/05/26 07:30:36;;;;;;;5.17;2.10;;;16.80;99.90;;;;;;5073799;28;20616;-77
2021/05/26 07:33:02;;;;;;;2.77;2.20;;;16.90;99.90;;;;;;5070161;28;20196;-76
2021/05/26 07:35:29;;;;;;;4.93;2.47;;;17.20;99.90;;;;;;5068802;28;20223;-78
2021/05/26 07:37:55;;;;;;;3.30;2.20;;;17.70;99.90;;;;;;5064383;28;20286;-77
2021/05/26 07:40:22;;;;;;;3.73;2.47;;;18.50;99.90;;;;;;5065472;28;20279;-80
2021/05/26 07:42:49;;;;;;;4.07;2.50;;;18.60;99.90;;;;;;5064872;28;20318;-78
2021/05/26 07:45:16;;;;;;;4.43;2.60;;;18.60;99.90;;;;;;5067877;28;20670;-76
2021/05/26 07:47:42;;;;;;;5.03;2.80;;;18.80;99.90;;;;;;5070787;28;20214;-77
2021/05/26 07:50:10;;;;;;;5.47;3.20;;;18.70;99.90;;;;;;5073875;28;20298;-77
2021/05/26 07:52:36;;;;;;;3.97;2.70;;;18.30;99.90;;;;;;5073588;28;20587;-80
2021/05/26 07:55:04;;;;;;;3.43;2.63;;;18.40;99.90;;;;;;5073643;28;20307;-78
2021/05/26 07:57:31;;;;;;;4.63;2.57;;;18.60;99.90;;;;;;5073823;28;20217;-78
2021/05/26 07:59:57;;;;;;;2.87;2.07;;;19.10;99.90;;;;;;5072748;28;20249;-79
2021/05/26 08:02:24;;;;;;;5.00;2.60;;;21.00;99.90;;;;;;5056026;28;20303;-77
2021/05/26 08:04:52;;;;;;;4.97;2.57;;;23.30;99.90;;;;;;5053194;28;20529;-79
2021/05/26 08:07:18;;;;;;;8.88;2.65;;;24.70;99.90;;;;;;5064233;28;20207;-80
2021/05/26 08:09:44;;;;;;;2.78;1.90;;;26.20;99.90;;;;;;5073004;28;20562;-79
2021/05/26 08:12:13;;;;;;;2.92;2.22;;;26.70;99.90;;;;;;5072255;28;20699;-77
2021/05/26 08:14:40;;;;;;;3.35;2.08;;;27.50;99.90;;;;;;5072946;28;20547;-77
2021/05/26 08:17:07;;;;;;;4.28;2.58;;;27.60;99.90;;;;;;5072273;28;20290;-78
2021/05/26 08:19:34;;;;;;;4.80;2.20;;;27.20;99.90;;;;;;5072304;28;20666;-78
2021/05/26 08:22:00;;;;;;;4.80;2.40;;;28.80;99.90;;;;;;5072777;28;20223;-80
2021/05/26 08:24:27;;;;;;;3.08;2.05;;;30.50;99.90;;;;;;5072896;28;20286;-79
2021/05/26 08:26:53;;;;;;;2.70;2.38;;;31.70;99.90;;;;;;5072996;28;20252;-79
2021/05/26 08:29:20;;;;;;;3.50;2.10;;;31.30;99.90;;;;;;5072636;28;20736;-82
2021/05/26 08:31:48;;;;;;;4.75;2.20;;;30.80;99.90;;;;;;5072063;28;20275;-78
2021/05/26 08:34:14;;;;;;;3.55;2.05;;;29.70;99.90;;;;;;5072216;28;20227;-79
2021/05/26 08:36:41;;;;;;;3.97;2.28;;;28.80;99.90;;;;;;5072813;28;20282;-77
2021/05/26 08:39:07;;;;;;;4.05;2.40;;;27.80;99.90;;;;;;5072658;28;20210;-78
2021/05/26 08:41:34;;;;;;;2.78;2.28;;;26.80;99.90;;;;;;5072172;28;20225;-77
2021/05/26 08:44:00;;;;;;;3.65;2.55;;;26.40;99.90;;;;;;5073033;28;20283;-78
2021/05/26 08:46:28;;;;;;;5.90;2.63;;;24.40;99.90;;;;;;5072024;28;20568;-78
2021/05/26 08:49:01;;;;;;;6.63;2.70;;;24.30;99.90;;;;;;5072797;28;20207;-78
2021/05/26 08:51:28;;;;;;;4.75;2.72;;;24.70;99.90;;;;;;5059976;28;20195;-77
2021/05/26 08:53:55;;;;;;;4.00;2.60;;;26.90;99.90;;;;;;5057368;28;20200;-77
2021/05/26 08:56:21;;;;;;;4.00;2.70;;;28.00;99.90;;;;;;5063018;28;20206;-78
2021/05/26 08:58:48;;;;;;;6.15;3.20;;;26.40;99.90;;;;;;5070454;28;20231;-80
2021/05/26 09:01:14;;;;;;;5.55;2.83;;;24.00;99.90;;;;;;5065137;28;20220;-78
2021/05/26 09:03:40;;;;;;;12.48;3.35;;;22.00;99.90;;;;;;5070518;28;20286;-78
2021/05/26 09:06:12;;;;;;;6.33;3.17;;;20.70;99.90;;;;;;5071669;28;20637;-80
2021/05/26 09:08:46;;;;;;;5.57;3.07;;;19.80;99.90;;;;;;5072120;28;20616;-78
2021/05/26 09:11:12;;;;;;;5.07;2.80;;;20.10;99.90;;;;;;5067566;28;20202;-78
2021/05/26 09:13:41;;;;;;;7.20;3.50;;;20.30;99.90;;;;;;5063384;28;20232;-77
2021/05/26 09:16:08;;;;;;;5.63;2.47;;;20.80;99.90;;;;;;5062492;28;20220;-79
2021/05/26 09:18:56;;;;;;;7.28;2.55;;;22.40;99.90;;;;;;5072079;28;20278;-77
2021/05/26 09:21:42;;;;;;;4.80;2.85;;;24.30;99.90;;;;;;5071122;28;20215;-77
2021/05/26 09:24:29;;;;;;;7.15;3.03;;;24.30;99.90;;;;;;5071668;28;20241;-78
2021/05/26 09:26:57;;;;;;;5.95;3.28;;;24.60;99.90;;;;;;5059922;28;20249;-77
2021/05/26 09:29:25;;;;;;;5.55;3.00;;;25.30;99.90;;;;;;5071888;28;20195;-82
2021/05/26 09:31:56;;;;;;;7.53;3.20;;;25.40;99.90;;;;;;5070320;28;20235;-79
2021/05/26 09:34:35;;;;;;;8.25;3.13;;;26.30;99.90;;;;;;5071856;28;20294;-77
2021/05/26 09:37:03;;;;;;;6.47;3.47;;;25.60;99.90;;;;;;5071253;28;20228;-80
2021/05/26 09:39:44;;;;;;;6.35;3.55;;;24.70;99.90;;;;;;5069893;28;20223;-83
2021/05/26 09:42:22;;;;;;;7.47;3.65;;;23.50;99.90;;;;;;5069786;28;20250;-80
2021/05/26 09:45:08;;;;;;;7.40;3.92;;;22.50;99.90;;;;;;5068400;28;20282;-78
2021/05/26 09:47:36;;;;;;;5.97;4.10;;;21.40;99.90;;;;;;5058675;28;20207;-79
2021/05/26 09:50:17;;;;;;;7.50;3.93;;;21.70;99.90;;;;;;5070666;28;20655;-78
2021/05/26 09:53:03;;;;;;;6.50;4.17;;;21.80;99.90;;;;;;5070326;28;20629;-77
2021/05/26 09:55:32;;;;;;;6.83;4.10;;;20.90;99.90;;;;;;5071579;28;20214;-78
2021/05/26 09:57:59;;;;;;;6.47;4.40;;;19.90;99.90;;;;;;5070897;28;20600;-81
2021/05/26 10:00:27;;;;;;;8.70;4.77;;;19.50;99.90;;;;;;5075192;28;20230;-79
2021/05/26 10:02:53;;;;;;;9.43;5.20;;;20.00;99.90;;;;;;5061788;28;20744;-78
2021/05/26 10:05:21;;;;;;;7.30;4.80;;;21.70;99.90;;;;;;5065762;28;20274;-78
2021/05/26 10:07:51;;;;;;;6.57;4.18;;;23.30;99.90;;;;;;5073702;28;20199;-78
2021/05/26 10:10:20;;;;;;;9.05;4.78;;;24.90;99.90;;;;;;5075578;28;20615;-79
2021/05/26 10:12:54;;;;;;;5.25;4.50;;;25.40;99.90;;;;;;5074804;28;20282;-79
2021/05/26 10:15:22;;;;;;;5.13;4.35;;;24.40;99.90;;;;;;5075201;28;20632;-82
2021/05/26 10:17:51;;;;;;;7.68;4.57;;;25.50;99.90;;;;;;5074629;28;20200;-77
2021/05/26 10:20:19;;;;;;;6.63;4.78;;;26.90;99.90;;;;;;5075915;28;20225;-78
2021/05/26 10:22:48;;;;;;;7.43;4.72;;;27.00;99.90;;;;;;5075684;28;20329;-78
2021/05/26 10:25:15;;;;;;;7.45;4.70;;;26.90;99.90;;;;;;5074108;28;20528;-77
2021/05/26 10:27:48;;;;;;;9.70;4.03;;;26.20;99.90;;;;;;5075096;28;20654;-81
2021/05/26 10:30:17;;;;;;;7.85;3.88;;;26.60;99.90;;;;;;5074195;28;20695;-77
2021/05/26 10:32:52;;;;;;;5.70;3.80;;;27.30;99.90;;;;;;5071345;28;20566;-81
2021/05/26 10:35:19;;;;;;;8.02;3.92;;;27.60;99.90;;;;;;5061188;28;20278;-82
2021/05/26 10:37:46;;;;;;;5.60;3.50;;;27.60;99.90;;;;;;5074359;28;20653;-78
2021/05/26 10:40:49;;;;;;;7.13;3.60;;;28.00;99.90;;;;;;5075098;28;20599;-83
2021/05/26 10:43:36;;;;;;;6.70;3.40;;;28.00;99.90;;;;;;5074016;28;20638;-80
2021/05/26 10:46:04;;;;;;;5.20;2.83;;;26.80;99.90;;;;;;5074999;28;20184;-79
2021/05/26 10:49:05;;;;;;;4.25;2.78;;;26.60;99.90;;;;;;5074895;28;20662;-79
2021/05/26 10:51:58;;;;;;;5.47;3.20;;;24.70;99.90;;;;;;5073706;28;20199;-78
2021/05/26 10:54:57;;;;;;;5.38;2.90;;;23.10;99.90;;;;;;5066570;28;20206;-78
2021/05/26 10:57:24;;;;;;;8.40;3.20;;;21.20;99.90;;;;;;5073095;28;20356;-79
2021/05/26 11:00:29;;;;;;;4.90;3.00;;;20.20;99.90;;;;;;5073946;28;20784;-80
2021/05/26 11:03:39;;;;;;;5.23;3.57;;;20.10;99.90;;;;;;5074000;28;20222;-79
2021/05/26 11:06:35;;;;;;;6.70;2.93;;;22.40;99.90;;;;;;5060088;28;20195;-79
2021/05/26 11:09:02;;;;;;;4.10;2.97;;;24.00;99.90;;;;;;5068218;28;20197;-77
2021/05/26 11:11:54;;;;;;;5.97;3.40;;;24.30;99.90;;;;;;5073689;28;20210;-77
2021/05/26 11:14:35;;;;;;;10.37;3.80;;;23.10;99.90;;;;;;5065028;28;20338;-78
2021/05/26 11:17:25;;;;;;;6.07;2.73;;;22.00;99.90;;;;;;5071697;28;20203;-78
2021/05/26 11:20:05;;;;;;;6.17;2.50;;;21.20;99.90;;;;;;5066424;28;20203;-78
2021/05/26 11:22:31;;;;;;;6.37;2.70;;;20.70;99.90;;;;;;5060439;28;20575;-78
2021/05/26 11:24:58;;;;;;;4.03;2.40;;;20.20;99.90;;;;;;5068397;28;20222;-77
2021/05/26 11:27:26;;;;;;;4.93;2.63;;;20.90;99.90;;;;;;5068042;28;20307;-80
2021/05/26 11:29:55;;;;;;;5.63;3.00;;;22.40;99.90;;;;;;5071291;28;20195;-79
2021/05/26 11:32:24;;;;;;;6.50;2.77;;;22.10;99.90;;;;;;5069698;28;20211;-78
2021/05/26 11:34:54;;;;;;;8.60;3.90;;;21.90;99.90;;;;;;5066117;28;20250;-77
2021/05/26 11:37:28;;;;;;;7.43;3.20;;;21.40;99.90;;;;;;5072316;28;20195;-78
2021/05/26 11:39:55;;;;;;;8.80;3.17;;;20.50;99.90;;;;;;5066079;28;20222;-79
2021/05/26 11:42:23;;;;;;;5.43;2.30;;;19.80;99.90;;;;;;5067606;28;20318;-80
2021/05/26 11:45:00;;;;;;;6.33;1.93;;;19.30;99.90;;;;;;5063766;28;20193;-78
2021/05/26 11:47:32;;;;;;;7.87;1.80;;;18.70;99.90;;;;;;5060360;28;20507;-78
2021/05/26 11:49:59;;;;;;;5.27;1.47;;;18.50;99.90;;;;;;5067003;28;21613;-77
2021/05/26 11:52:26;;;;;;;8.47;1.43;;;18.50;99.90;;;;;;5069898;28;20207;-79
2021/05/26 11:54:54;;;;;;;5.07;1.53;;;18.60;99.90;;;;;;5065733;28;20229;-77
2021/05/26 11:57:20;;;;;;;2.97;1.03;;;19.20;99.90;;;;;;5060852;28;20726;-77
2021/05/26 11:59:51;;;;;;;4.30;1.27;;;19.40;99.90;;;;;;5060504;28;20761;-79
2021/05/26 12:02:18;;;;;;;4.90;1.37;;;19.50;99.90;;;;;;5061289;28;20512;-78
2021/05/26 12:04:45;;;;;;;6.90;1.80;;;19.50;99.90;;;;;;5066182;28;20238;-77
2021/05/26 12:07:11;;;;;;;3.40;1.40;;;19.40;99.90;;;;;;5072292;28;20279;-78
2021/05/26 12:09:38;;;;;;;4.03;1.27;;;19.20;99.90;;;;;;5066293;28;20291;-78
2021/05/26 12:12:16;;;;;;;4.63;1.10;;;20.10;99.90;;;;;;5070446;28;20300;-77
2021/05/26 12:14:43;;;;;;;2.90;1.40;;;20.70;99.90;;;;;;5063707;28;20207;-79
2021/05/26 12:17:12;;;;;;;4.33;1.30;;;20.80;99.90;;;;;;5070763;28;20207;-77
2021/05/26 12:19:39;;;;;;;4.87;1.10;;;20.90;99.90;;;;;;5070641;28;20657;-77
2021/05/26 12:22:14;;;;;;;4.00;1.30;;;20.40;99.90;;;;;;5068776;28;20670;-77
2021/05/26 12:24:55;;;;;;;5.80;1.67;;;19.80;99.90;;;;;;5070336;28;20311;-78
2021/05/26 12:27:37;;;;;;;5.07;1.70;;;19.20;99.90;;;;;;5059078;28;20231;-78
2021/05/26 12:30:18;;;;;;;5.40;1.63;;;19.40;99.90;;;;;;5061839;28;20539;-78
2021/05/26 12:32:45;;;;;;;9.43;2.20;;;20.00;99.90;;;;;;5070629;28;20199;-78
2021/05/26 12:35:16;;;;;;;5.50;1.87;;;20.30;99.90;;;;;;5060536;28;20278;-77
2021/05/26 12:37:45;;;;;;;5.03;1.90;;;20.00;99.90;;;;;;5064068;28;20227;-79
2021/05/26 12:40:18;;;;;;;5.13;2.00;;;19.50;99.90;;;;;;5062976;28;20224;-78
2021/05/26 12:42:46;;;;;;;2.60;1.20;;;18.90;99.90;;;;;;5068305;28;20860;-77
2021/05/26 12:45:20;;;;;;;3.53;1.40;;;19.30;99.90;;;;;;5066310;28;20318;-77
2021/05/26 12:47:47;;;;;;;3.73;1.40;;;19.50;99.90;;;;;;5060996;28;20711;-77
2021/05/26 12:50:16;;;;;;;5.63;1.70;;;19.60;99.90;;;;;;5065859;28;20238;-77
2021/05/26 12:52:43;;;;;;;2.90;1.57;;;19.60;99.90;;;;;;5061700;28;20543;-77
2021/05/26 12:55:12;;;;;;;4.53;1.47;;;19.50;99.90;;;;;;5075325;28;20196;-77
2021/05/26 12:57:41;;;;;;;2.17;1.30;;;19.20;99.90;;;;;;5073293;28;20527;-76
2021/05/26 13:00:10;;;;;;;3.70;1.57;;;19.40;99.90;;;;;;5062374;28;20187;-77